Time;durP1;ratioP1;P1;durP2;ratioP2;P2;SDS_P1;SDS_P2;PMS_P1;PMS_P2;Temp;Humidity;BMP_temperature;BMP_pressure;BME280_temperature;BME280_humidity;BME280_pressure;Samples;Min_cycle;Max_cycle;Signal;HPM_P1;HPM_P2
2022/09/14 00:00:22;;;;;;;6.13;1.40;;;;;;;13.65;100.00;101038.91;5093678;28;20035;-80
2022/09/14 00:02:47;;;;;;;3.80;1.63;;;;;;;13.61;100.00;101036.72;5076126;28;20402;-80
2022/09/14 00:05:13;;;;;;;6.25;1.60;;;;;;;13.56;100.00;101031.81;5075847;28;20032;-80
2022/09/14 00:07:40;;;;;;;6.03;1.73;;;;;;;13.54;100.00;101041.81;5094000;28;20371;-81
2022/09/14 00:10:06;;;;;;;5.63;2.00;;;;;;;13.50;100.00;101035.13;5075515;28;20036;-81
2022/09/14 00:12:31;;;;;;;4.82;1.50;;;;;;;13.48;100.00;101032.59;5075375;28;20028;-80
2022/09/14 00:14:57;;;;;;;7.53;1.35;;;;;;;13.47;100.00;101030.09;5093542;28;20109;-80
2022/09/14 00:17:22;;;;;;;3.22;1.30;;;;;;;13.47;100.00;101030.09;5058646;28;20036;-79
2022/09/14 00:19:47;;;;;;;3.90;1.13;;;;;;;13.47;100.00;101032.75;5075076;28;20457;-80
2022/09/14 00:22:16;;;;;;;4.38;1.50;;;;;;;13.47;100.00;101035.44;5093532;28;20060;-79
2022/09/14 00:24:42;;;;;;;3.17;1.30;;;;;;;13.47;100.00;101030.09;5093097;28;20424;-79
2022/09/14 00:27:07;;;;;;;7.93;1.55;;;;;;;13.47;100.00;101032.75;5093462;28;20092;-80
2022/09/14 00:35:41;;;;;;;5.25;1.45;;;;;;;13.45;100.00;101016.00;5092636;28;20530;-80
2022/09/14 00:38:09;;;;;;;5.18;1.60;;;;;;;13.46;100.00;101015.03;5093501;28;20020;-79
2022/09/14 00:40:35;;;;;;;5.85;1.50;;;;;;;13.45;100.00;101013.34;5075353;28;20028;-79
2022/09/14 00:43:01;;;;;;;8.13;1.88;;;;;;;13.44;100.00;101009.84;5092927;28;20028;-79
2022/09/14 00:45:27;;;;;;;4.72;1.23;;;;;;;13.42;100.00;101003.81;5075012;28;20040;-79
2022/09/14 00:47:53;;;;;;;6.57;1.40;;;;;;;13.43;100.00;101000.13;5093364;28;20138;-79
2022/09/14 00:50:19;;;;;;;2.95;1.17;;;;;;;13.41;100.00;100999.44;5093256;28;20133;-79
2022/09/14 00:52:48;;;;;;;3.40;1.33;;;;;;;13.39;100.00;100988.91;5093499;28;20070;-79
2022/09/14 00:55:18;;;;;;;4.13;1.20;;;;;;;13.37;100.00;100988.22;5093112;28;20028;-79
2022/09/14 00:57:52;;;;;;;3.50;1.30;;;;;;;13.37;100.00;100988.22;5093085;28;20107;-79
2022/09/14 01:00:22;;;;;;;4.18;1.40;;;;;;;13.36;100.00;100975.00;5093499;28;20028;-79
2022/09/14 01:02:48;;;;;;;6.13;1.50;;;;;;;13.39;100.00;100985.38;5092821;28;20035;-79
2022/09/14 01:05:14;;;;;;;7.47;1.42;;;;;;;13.38;100.00;100975.72;5091795;28;20044;-79
2022/09/14 01:08:06;;;;;;;1.95;1.17;;;;;;;13.39;100.00;100980.91;5074576;28;20387;-83
2022/09/14 01:10:34;;;;;;;;;;;;;;;13.37;100.00;100969.50;5093352;28;20486;-80
2022/09/14 01:13:37;;;;;;;5.68;1.20;;;;;;;13.40;100.00;100963.03;5092973;28;20364;-79
2022/09/14 01:16:43;;;;;;;5.38;1.40;;;;;;;13.39;100.00;100964.88;5092906;28;20028;-79
2022/09/14 01:19:48;;;;;;;4.45;1.30;;;;;;;13.38;100.00;100955.16;4994674;28;20041;-79
2022/09/14 01:22:21;;;;;;;4.15;1.35;;;;;;;13.37;100.00;100958.81;5092966;28;20112;-79
2022/09/14 01:25:05;;;;;;;5.65;1.20;;;;;;;13.36;100.00;100957.16;5092979;28;20529;-80
2022/09/14 01:27:40;;;;;;;3.17;1.27;;;;;;;13.35;100.00;100957.31;5092721;28;20387;-79
2022/09/14 01:30:09;;;;;;;5.10;1.35;;;;;;;13.34;100.00;100952.94;5093124;28;20028;-79
2022/09/14 01:33:28;;;;;;;5.88;1.50;;;;;;;13.36;100.00;100949.13;5074828;28;20031;-79
2022/09/14 01:35:56;;;;;;;5.53;1.30;;;;;;;13.36;100.00;100945.59;5088317;28;20047;-79
2022/09/14 01:38:36;;;;;;;3.75;1.50;;;;;;;13.35;100.00;100942.09;5092845;28;20110;-80
2022/09/14 01:41:05;;;;;;;7.78;1.42;;;;;;;13.34;100.00;100942.25;5092871;28;20031;-80
2022/09/14 01:43:36;;;;;;;5.55;1.30;;;;;;;13.34;100.00;100940.41;5092826;28;20032;-80
2022/09/14 01:46:17;;;;;;;4.38;1.40;;;;;;;13.34;100.00;100940.41;5092756;28;20024;-80
2022/09/14 01:48:52;;;;;;;3.97;1.52;;;;;;;13.35;100.00;100935.94;5096523;28;20101;-80
2022/09/14 01:51:28;;;;;;;2.88;1.20;;;;;;;13.34;100.00;100943.09;5097042;28;20032;-80
2022/09/14 01:54:00;;;;;;;2.45;1.33;;;;;;;13.34;100.00;100940.41;5096905;28;20498;-80
2022/09/14 01:56:34;;;;;;;5.45;1.20;;;;;;;13.34;100.00;100940.41;5096467;28;20055;-80
2022/09/14 01:59:09;;;;;;;6.60;1.70;;;;;;;13.33;100.00;100933.38;5096866;28;20039;-80
2022/09/14 02:01:39;;;;;;;2.53;1.20;;;;;;;13.34;100.00;100929.72;5096429;28;20153;-80
2022/09/14 02:04:09;;;;;;;9.00;1.25;;;;;;;13.34;100.00;100924.38;5096178;28;20478;-80
2022/09/14 02:06:39;;;;;;;5.32;1.92;;;;;;;13.34;100.00;100926.22;5096092;28;20043;-80
2022/09/14 02:09:09;;;;;;;2.90;1.20;;;;;;;13.33;100.00;100920.03;5096310;28;20337;-80
2022/09/14 02:11:35;;;;;;;4.93;1.70;;;;;;;13.34;100.00;100919.03;5096083;28;20073;-81
2022/09/14 02:14:01;;;;;;;5.88;1.40;;;;;;;13.33;100.00;100919.16;5095686;28;20031;-80
2022/09/14 02:16:27;;;;;;;4.10;1.40;;;;;;;13.32;100.00;100917.50;5095738;28;20031;-80
2022/09/14 02:18:52;;;;;;;6.50;1.48;;;;;;;13.31;100.00;100919.31;5095802;28;20396;-79
2022/09/14 02:21:25;;;;;;;4.20;1.65;;;;;;;13.31;100.00;100913.97;5095609;28;20102;-79
2022/09/14 02:23:52;;;;;;;3.72;1.50;;;;;;;13.31;100.00;100921.16;5096125;28;20111;-80
2022/09/14 02:26:20;;;;;;;3.60;1.30;;;;;;;13.32;100.00;100925.53;5095514;28;20028;-78
2022/09/14 02:28:46;;;;;;;2.33;1.30;;;;;;;13.30;100.00;100915.00;5095905;28;20078;-79
2022/09/14 02:31:19;;;;;;;4.88;1.48;;;;;;;13.29;100.00;100910.63;5095528;28;20028;-79
2022/09/14 02:34:02;;;;;;;2.90;1.23;;;;;;;13.30;100.00;100908.78;5095133;28;20027;-79
2022/09/14 02:36:40;;;;;;;4.88;1.40;;;;;;;13.30;100.00;100904.31;5077874;28;20097;-79
2022/09/14 02:39:40;;;;;;;2.90;1.23;;;;;;;13.28;100.00;100900.94;5094722;28;20082;-79
2022/09/14 02:42:19;;;;;;;5.30;1.35;;;;;;;13.28;100.00;100895.59;5068039;28;20067;-80
2022/09/14 02:45:02;;;;;;;6.28;1.83;;;;;;;13.28;100.00;100895.59;5095542;28;20035;-79
2022/09/14 02:47:54;;;;;;;3.25;1.52;;;;;;;13.25;100.00;100885.22;5076527;28;20502;-79
2022/09/14 02:50:31;;;;;;;;;;;;;;;13.24;100.00;100888.88;5096213;28;20035;-78
2022/09/14 02:52:56;;;;;;;6.15;1.60;;;;;;;13.23;100.00;100885.38;5095584;28;19954;-79
2022/09/14 02:55:28;;;;;;;10.77;2.80;;;;;;;13.22;100.00;100877.50;5094791;28;20082;-79
2022/09/14 02:58:08;;;;;;;5.93;1.70;;;;;;;13.21;100.00;100873.16;5094352;28;20024;-78
2022/09/14 03:00:39;;;;;;;4.97;1.50;;;;;;;13.19;100.00;100881.31;5094844;28;20058;-78
2022/09/14 03:03:06;;;;;;;6.68;1.85;;;;;;;13.18;100.00;100873.47;5094811;28;20027;-79
2022/09/14 03:05:32;;;;;;;6.15;1.60;;;;;;;13.19;100.00;100873.31;5095243;28;20093;-81
2022/09/14 03:07:58;;;;;;;4.43;2.03;;;;;;;13.18;100.00;100862.78;5094572;28;20036;-81
2022/09/14 03:10:24;;;;;;;4.40;1.98;;;;;;;13.19;100.00;100869.81;5094761;28;20061;-80
2022/09/14 03:12:49;;;;;;;4.55;1.70;;;;;;;13.19;100.00;100862.63;5094746;28;20032;-80
2022/09/14 03:15:15;;;;;;;7.63;1.80;;;;;;;13.19;100.00;100865.28;5094893;28;20168;-81
2022/09/14 03:17:47;;;;;;;6.15;2.00;;;;;;;13.19;100.00;100867.13;5076808;28;20032;-80
2022/09/14 03:20:15;;;;;;;7.70;1.90;;;;;;;13.19;100.00;100859.13;5094838;28;20032;-81
2022/09/14 03:22:41;;;;;;;4.53;1.98;;;;;;;13.17;100.00;100859.28;5094334;28;20365;-81
2022/09/14 03:25:07;;;;;;;5.53;1.85;;;;;;;13.17;100.00;100853.94;5094350;28;20089;-81
2022/09/14 03:27:32;;;;;;;5.43;1.95;;;;;;;13.17;100.00;100856.59;5094535;28;20032;-80
2022/09/14 03:29:57;;;;;;;6.10;1.77;;;;;;;13.19;100.00;100848.44;5093863;28;20103;-80
2022/09/14 03:32:23;;;;;;;8.48;2.25;;;;;;;13.20;100.00;100853.63;5093430;28;20032;-80
2022/09/14 03:34:48;;;;;;;5.10;1.88;;;;;;;13.21;100.00;100846.44;5093997;28;20046;-80
2022/09/14 03:37:13;;;;;;;6.57;1.67;;;;;;;13.21;100.00;100843.75;5093389;28;20111;-81
2022/09/14 03:39:39;;;;;;;5.97;1.75;;;;;;;13.20;100.00;100837.59;5093959;28;20028;-81
2022/09/14 03:42:04;;;;;;;5.47;1.83;;;;;;;13.18;100.00;100834.25;5093685;28;20430;-81
2022/09/14 03:44:29;;;;;;;10.43;1.70;;;;;;;13.18;100.00;100839.59;5094445;28;20360;-80
2022/09/14 03:46:55;;;;;;;5.82;2.03;;;;;;;13.14;100.00;100830.22;5093623;28;20060;-80
2022/09/14 03:49:20;;;;;;;5.00;1.63;;;;;;;13.17;100.00;100829.06;5094083;28;20131;-81
2022/09/14 03:51:45;;;;;;;6.40;2.30;;;;;;;13.18;100.00;100833.38;5094588;28;20039;-81
2022/09/14 03:54:11;;;;;;;5.38;1.50;;;;;;;13.14;100.00;100832.88;5094117;28;20397;-80
2022/09/14 03:56:36;;;;;;;6.75;1.67;;;;;;;13.14;100.00;100829.38;5094076;28;20024;-81
2022/09/14 03:59:02;;;;;;;3.80;1.30;;;;;;;13.13;100.00;100831.19;5094426;28;20031;-81
2022/09/14 04:01:27;;;;;;;4.57;1.60;;;;;;;13.13;100.00;100836.53;5093895;28;20032;-81
2022/09/14 04:03:52;;;;;;;5.93;1.50;;;;;;;13.12;100.00;100834.03;5093868;28;20448;-81
2022/09/14 04:06:18;;;;;;;4.07;1.63;;;;;;;13.13;100.00;100830.38;5093774;28;20399;-81
2022/09/14 04:08:45;;;;;;;5.30;1.80;;;;;;;13.11;100.00;100835.88;5094316;28;20112;-80
2022/09/14 04:11:19;;;;;;;5.40;2.13;;;;;;;13.13;100.00;100836.53;5092776;28;20028;-81
2022/09/14 04:13:46;;;;;;;5.38;1.70;;;;;;;13.13;100.00;100843.72;5075258;28;20107;-80
2022/09/14 04:16:12;;;;;;;3.97;1.45;;;;;;;13.15;100.00;100845.25;5093360;28;20028;-81
2022/09/14 04:18:37;;;;;;;4.63;1.80;;;;;;;13.16;100.00;100841.56;5093614;28;20119;-80
2022/09/14 04:21:05;;;;;;;5.18;2.13;;;;;;;13.16;100.00;100846.91;5093529;28;20129;-81
2022/09/14 04:23:31;;;;;;;3.97;1.65;;;;;;;13.17;100.00;100842.41;5094023;28;20028;-81
2022/09/14 04:25:57;;;;;;;8.00;1.90;;;;;;;13.18;100.00;100847.59;5093788;28;20032;-81
2022/09/14 04:28:23;;;;;;;4.82;2.20;;;;;;;13.18;100.00;100844.94;5093437;28;20525;-81
2022/09/14 04:30:59;;;;;;;6.47;1.70;;;;;;;13.19;100.00;100848.44;5093254;28;20059;-81
2022/09/14 04:33:28;;;;;;;5.97;2.00;;;;;;;13.17;100.00;100839.75;5092816;28;20028;-81
2022/09/14 04:36:05;;;;;;;7.50;2.00;;;;;;;13.14;100.00;100835.53;5093454;28;20035;-81
2022/09/14 04:38:31;;;;;;;4.75;1.90;;;;;;;13.11;100.00;100837.72;5093067;28;20103;-79
2022/09/14 04:40:57;;;;;;;3.78;1.95;;;;;;;13.09;100.00;100835.16;5093139;28;20480;-80
2022/09/14 04:43:24;;;;;;;4.63;1.80;;;;;;;13.10;100.00;100836.84;5093275;28;20103;-79
2022/09/14 04:45:50;;;;;;;7.20;1.90;;;;;;;13.09;100.00;100832.50;5093724;28;20028;-80
2022/09/14 04:48:15;;;;;;;4.80;2.03;;;;;;;13.08;100.00;100840.66;5092703;28;20048;-80
2022/09/14 04:50:41;;;;;;;7.18;2.33;;;;;;;13.07;100.00;100836.34;5093571;28;20035;-79
2022/09/14 04:53:06;;;;;;;5.65;2.10;;;;;;;13.04;100.00;100840.16;5093164;28;20020;-79
2022/09/14 04:55:32;;;;;;;8.02;1.90;;;;;;;13.01;100.00;100829.78;5092799;28;20032;-79
2022/09/14 04:57:57;;;;;;;4.13;2.00;;;;;;;13.00;100.00;100828.94;5093107;28;20040;-80
2022/09/14 05:00:22;;;;;;;5.32;1.80;;;;;;;12.98;100.00;100817.56;5093208;28;20123;-80
2022/09/14 05:02:48;;;;;;;8.05;2.22;;;;;;;12.99;100.00;100813.91;5092745;28;20040;-80
2022/09/14 05:05:13;;;;;;;4.10;1.98;;;;;;;12.96;100.00;100811.53;5074866;28;20044;-80
2022/09/14 05:07:39;;;;;;;5.97;2.00;;;;;;;12.94;100.00;100808.19;5093080;28;20067;-80
2022/09/14 05:10:05;;;;;;;4.70;2.13;;;;;;;12.93;100.00;100816.34;5093262;28;20069;-79
2022/09/14 05:12:30;;;;;;;9.77;2.15;;;;;;;12.91;100.00;100813.81;5092898;28;20046;-80
2022/09/14 05:14:55;;;;;;;5.07;2.08;;;;;;;12.89;100.00;100815.81;5093276;28;20028;-80
2022/09/14 05:17:21;;;;;;;4.63;2.58;;;;;;;12.88;100.00;100822.16;5092944;28;20103;-80
2022/09/14 05:19:46;;;;;;;6.28;2.10;;;;;;;12.89;100.00;100823.84;5092956;28;20032;-80
2022/09/14 05:22:13;;;;;;;5.38;2.17;;;;;;;12.91;100.00;100829.03;5095303;28;20050;-81
2022/09/14 05:24:38;;;;;;;4.00;2.10;;;;;;;12.92;100.00;100831.53;5078955;28;20035;-80
2022/09/14 05:27:04;;;;;;;8.00;2.20;;;;;;;12.92;100.00;100823.53;5096829;28;20059;-79
2022/09/14 05:29:30;;;;;;;8.45;2.40;;;;;;;12.92;100.00;100817.34;5079005;28;20134;-80
2022/09/14 05:31:56;;;;;;;6.22;2.28;;;;;;;12.92;100.00;100812.00;5096753;28;20082;-79
2022/09/14 05:34:21;;;;;;;4.53;2.20;;;;;;;12.92;100.00;100804.84;5096597;28;20086;-79
2022/09/14 05:36:47;;;;;;;9.07;2.45;;;;;;;12.91;100.00;100813.81;5096924;28;20088;-81
2022/09/14 05:39:12;;;;;;;12.20;2.83;;;;;;;12.92;100.00;100804.84;5096651;28;20043;-81
2022/09/14 05:41:38;;;;;;;8.32;2.97;;;;;;;12.95;100.00;100806.34;5096432;28;20036;-82
2022/09/14 05:44:04;;;;;;;8.32;2.38;;;;;;;12.97;100.00;100815.03;5096231;28;20039;-81
2022/09/14 05:46:29;;;;;;;6.50;2.53;;;;;;;12.98;100.00;100822.06;5096444;28;20103;-81
2022/09/14 05:48:55;;;;;;;8.05;2.53;;;;;;;13.00;100.00;100822.75;5077890;28;20052;-80
2022/09/14 05:51:23;;;;;;;4.03;2.05;;;;;;;12.99;100.00;100829.09;5096336;28;20028;-81
2022/09/14 05:53:53;;;;;;;8.93;2.42;;;;;;;13.01;100.00;100827.94;5096245;28;20061;-81
2022/09/14 05:56:20;;;;;;;6.32;2.53;;;;;;;13.03;100.00;100817.94;5096411;28;20039;-83
2022/09/14 05:58:46;;;;;;;6.75;2.40;;;;;;;13.03;100.00;100823.28;5096235;28;20024;-81
2022/09/14 06:01:15;;;;;;;8.60;2.83;;;;;;;13.05;100.00;100826.63;5095923;28;20119;-80
2022/09/14 06:03:42;;;;;;;6.05;2.45;;;;;;;13.04;100.00;100827.63;5095668;28;20460;-80
2022/09/14 06:06:09;;;;;;;11.77;2.58;;;;;;;13.05;100.00;100825.81;5078743;28;20425;-80
2022/09/14 06:08:35;;;;;;;6.15;2.30;;;;;;;13.07;100.00;100818.47;5096595;28;20032;-80
2022/09/14 06:11:06;;;;;;;5.05;2.92;;;;;;;13.08;100.00;100814.81;5095854;28;20069;-80
2022/09/14 06:13:32;;;;;;;5.55;2.58;;;;;;;13.09;100.00;100811.13;5095811;28;20024;-82
2022/09/14 06:16:02;;;;;;;8.88;2.83;;;;;;;13.13;100.00;100800.97;5095838;28;20034;-82
2022/09/14 06:18:30;;;;;;;9.18;3.22;;;;;;;13.16;100.00;100801.50;5095418;28;20392;-81
2022/09/14 06:20:56;;;;;;;10.43;2.90;;;;;;;13.18;100.00;100801.34;5096344;28;20077;-81
2022/09/14 06:23:22;;;;;;;9.60;3.35;;;;;;;13.21;100.00;100815.22;5061001;28;20422;-85
2022/09/14 06:25:47;;;;;;;7.82;3.70;;;;;;;13.28;100.00;100811.94;5095598;28;20032;-81
2022/09/14 06:28:12;;;;;;;4.65;2.70;;;;;;;13.34;100.00;100814.81;5095696;28;20040;-81
2022/09/14 06:30:42;;;;;;;6.25;2.72;;;;;;;13.38;100.00;100813.53;5095725;28;20059;-81
2022/09/14 06:33:07;;;;;;;6.85;2.50;;;;;;;13.47;100.00;100813.59;5095353;28;20031;-81
2022/09/14 06:35:32;;;;;;;8.88;2.55;;;;;;;13.54;100.00;100815.47;5095297;28;20036;-82
2022/09/14 06:37:58;;;;;;;6.22;2.90;;;;;;;13.60;100.00;100811.31;5095224;28;20255;-81
2022/09/14 06:40:23;;;;;;;7.05;2.60;;;;;;;13.70;100.00;100806.69;5095353;28;20083;-84
2022/09/14 06:42:48;;;;;;;5.35;2.65;;;;;;;13.80;100.00;100795.03;5095586;28;20036;-81
2022/09/14 06:45:14;;;;;;;4.93;2.53;;;;;;;13.85;100.00;100798.91;5095519;28;20035;-82
2022/09/14 06:47:39;;;;;;;7.13;2.45;;;;;;;13.88;100.00;100792.38;5094876;28;20052;-82
2022/09/14 06:50:05;;;;;;;6.95;2.08;;;;;;;13.88;100.00;100793.22;5095196;28;20032;-80
2022/09/14 06:52:30;;;;;;;10.88;2.70;;;;;;;13.90;100.00;100796.56;5094795;28;20032;-79
2022/09/14 06:54:56;;;;;;;4.05;2.22;;;;;;;13.90;100.00;100798.41;5076997;28;20392;-80
2022/09/14 06:57:21;;;;;;;3.13;2.10;;;;;;;13.87;100.00;100810.25;5094792;28;20032;-80
2022/09/14 06:59:46;;;;;;;5.85;2.28;;;;;;;13.88;100.00;100805.72;5094944;28;20476;-80
2022/09/14 07:02:12;;;;;;;5.40;2.47;;;;;;;13.89;100.00;100794.03;5094982;28;20107;-81
2022/09/14 07:04:37;;;;;;;5.90;2.22;;;;;;;13.91;100.00;100789.38;5094635;28;20452;-80
2022/09/14 07:07:03;;;;;;;6.93;2.20;;;;;;;13.95;100.00;100790.72;5094954;28;20036;-79
2022/09/14 07:09:30;;;;;;;7.05;2.50;;;;;;;13.96;100.00;100797.75;5094815;28;20032;-81
2022/09/14 07:11:55;;;;;;;4.20;2.17;;;;;;;13.98;100.00;100803.78;5094751;28;20115;-81
2022/09/14 07:14:21;;;;;;;12.88;2.65;;;;;;;14.02;100.00;100805.13;5077251;28;20119;-81
2022/09/14 07:16:46;;;;;;;4.95;2.10;;;;;;;14.08;100.00;100804.47;5094943;28;20138;-79
2022/09/14 07:19:13;;;;;;;3.90;1.85;;;;;;;14.16;100.00;100797.47;5095030;28;20054;-80
2022/09/14 07:21:39;;;;;;;4.28;1.90;;;;;;;14.20;100.00;100805.00;5094537;28;20038;-80
2022/09/14 07:24:05;;;;;;;8.15;2.15;;;;;;;14.24;100.00;100811.72;5094321;28;20438;-80
2022/09/14 07:26:34;;;;;;;6.43;1.85;;;;;;;14.27;100.00;100813.19;5094419;28;20032;-80
2022/09/14 07:29:06;;;;;;;4.25;1.95;;;;;;;14.31;100.00;100817.22;5094515;28;20036;-81
2022/09/14 07:31:34;;;;;;;6.57;2.08;;;;;;;14.38;100.00;100812.06;5094517;28;20123;-82
2022/09/14 07:34:03;;;;;;;3.88;1.90;;;;;;;14.41;100.00;100809.06;5094080;28;20032;-82
2022/09/14 07:36:30;;;;;;;10.93;1.80;;;;;;;14.45;100.00;100810.38;5094378;28;20020;-82
2022/09/14 07:38:56;;;;;;;7.50;2.30;;;;;;;14.45;100.00;100811.25;5094295;28;20115;-80
2022/09/14 07:41:24;;;;;;;7.00;1.90;;;;;;;14.44;100.00;100812.25;5094239;28;20490;-80
2022/09/14 07:43:51;;;;;;;7.07;2.28;;;;;;;14.46;100.00;100798.69;5075966;28;20401;-82
2022/09/14 07:46:17;;;;;;;6.30;2.15;;;;;;;14.45;100.00;100800.53;5094112;28;20480;-81
2022/09/14 07:48:43;;;;;;;8.68;2.00;;;;;;;14.49;100.00;100792.16;5094128;28;20174;-81
2022/09/14 07:51:09;;;;;;;21.55;2.28;;;;;;;14.53;100.00;100789.00;5094099;28;20044;-82
2022/09/14 07:53:37;;;;;;;8.27;2.10;;;;;;;14.57;100.00;100782.31;5075790;28;20123;-82
2022/09/14 07:56:04;;;;;;;5.78;2.13;;;;;;;14.66;100.00;100791.22;5093939;28;20161;-81
2022/09/14 07:58:30;;;;;;;6.38;1.88;;;;;;;14.71;100.00;100796.91;5093683;28;20468;-81
2022/09/14 08:01:18;;;;;;;8.45;2.10;;;;;;;14.74;100.00;100801.91;5093661;28;20032;-81
2022/09/14 08:03:45;;;;;;;9.30;2.10;;;;;;;14.78;100.00;100789.88;5093579;28;20472;-81
2022/09/14 08:06:17;;;;;;;6.88;1.55;;;;;;;14.83;100.00;100794.72;5094339;28;20068;-82
2022/09/14 08:08:44;;;;;;;6.13;1.63;;;;;;;14.86;100.00;100788.19;5093997;28;20384;-79
2022/09/14 08:11:15;;;;;;;6.25;1.75;;;;;;;14.93;100.00;100784.69;5093125;28;20481;-80
2022/09/14 08:13:42;;;;;;;;;;;;;;;15.02;100.00;100792.69;5093795;28;20085;-80
2022/09/14 08:16:08;;;;;;;4.28;1.80;;;;;;;15.09;100.00;100794.53;5093705;28;19919;-80
2022/09/14 08:18:34;;;;;;;7.53;1.95;;;;;;;15.19;100.00;100791.66;5093653;28;20024;-83
2022/09/14 08:21:08;;;;;;;6.72;1.90;;;;;;;15.27;100.00;100793.47;5093554;28;20051;-80
2022/09/14 08:23:34;;;;;;;7.03;1.75;;;;;;;15.31;100.00;100792.16;5093586;28;20067;-81
2022/09/14 08:26:03;;;;;;;5.13;1.70;;;;;;;15.39;100.00;100788.59;5093504;28;20078;-79
2022/09/14 08:28:29;;;;;;;6.82;1.60;;;;;;;15.38;100.00;100798.50;5093475;28;20064;-79
2022/09/14 08:30:54;;;;;;;3.20;1.52;;;;;;;15.45;100.00;100802.16;5075561;28;20541;-79
2022/09/14 08:33:20;;;;;;;10.60;1.90;;;;;;;15.50;100.00;100798.97;5093359;28;20044;-79
2022/09/14 08:35:45;;;;;;;3.42;1.40;;;;;;;15.51;100.00;100800.66;5093032;28;20024;-81
2022/09/14 08:38:10;;;;;;;7.10;1.98;;;;;;;15.56;100.00;100802.81;5093474;28;20406;-79
2022/09/14 08:40:46;;;;;;;6.88;2.08;;;;;;;15.55;100.00;100793.91;5093353;28;20076;-79
2022/09/14 08:43:13;;;;;;;7.85;1.98;;;;;;;15.58;100.00;100793.56;5094041;28;20119;-79
2022/09/14 08:45:41;;;;;;;17.98;2.30;;;;;;;15.59;100.00;100783.69;5093410;28;20514;-79
2022/09/14 08:48:18;;;;;;;4.85;1.80;;;;;;;15.54;100.00;100784.22;5075785;28;20127;-79
2022/09/14 08:50:43;;;;;;;7.53;1.80;;;;;;;15.41;100.00;100784.75;5076993;28;20081;-80
2022/09/14 08:53:09;;;;;;;8.40;2.00;;;;;;;15.38;100.00;100792.31;5093561;28;20028;-80
2022/09/14 08:55:43;;;;;;;10.57;1.80;;;;;;;15.36;100.00;100788.94;5093184;28;20032;-80
2022/09/14 08:58:09;;;;;;;5.85;1.90;;;;;;;15.34;100.00;100792.63;5097721;28;20140;-80
2022/09/14 09:00:51;;;;;;;4.78;1.95;;;;;;;15.31;100.00;100797.50;5097419;28;20460;-80
2022/09/14 09:03:34;;;;;;;9.00;2.20;;;;;;;15.30;100.00;100799.34;5079281;28;20053;-80
2022/09/14 09:06:24;;;;;;;7.25;1.95;;;;;;;15.31;100.00;100794.81;5097056;28;20032;-79
2022/09/14 09:09:01;;;;;;;6.78;1.73;;;;;;;15.34;100.00;100791.78;5096853;28;20032;-80
2022/09/14 09:11:39;;;;;;;7.65;2.13;;;;;;;15.34;100.00;100792.63;5080547;28;20036;-79
2022/09/14 09:14:16;;;;;;;5.32;1.85;;;;;;;15.40;100.00;100792.97;5097546;28;20024;-79
2022/09/14 09:16:45;;;;;;;10.10;2.10;;;;;;;15.44;100.00;100795.13;5096877;28;20024;-80
2022/09/14 09:19:17;;;;;;;2.58;1.60;;;;;;;15.45;100.00;100790.59;5096997;28;20032;-78
2022/09/14 09:21:45;;;;;;;6.97;1.80;;;;;;;15.48;100.00;100785.72;5097767;28;20024;-78
2022/09/14 09:24:31;;;;;;;4.40;1.88;;;;;;;15.50;100.00;100791.75;5096839;28;20377;-79
2022/09/14 09:26:57;;;;;;;4.13;1.65;;;;;;;15.58;100.00;100787.38;5097121;28;20024;-79
2022/09/14 09:29:22;;;;;;;3.58;1.70;;;;;;;15.58;100.00;100784.69;5096549;28;20479;-81
2022/09/14 09:31:52;;;;;;;10.88;2.08;;;;;;;15.61;100.00;100785.16;5097052;28;20532;-79
2022/09/14 09:34:25;;;;;;;5.60;1.52;;;;;;;15.72;100.00;100785.81;5096702;28;20035;-79
2022/09/14 09:36:50;;;;;;;7.28;1.67;;;;;;;15.71;100.00;100784.97;5078518;28;20028;-80
2022/09/14 09:39:16;;;;;;;8.13;1.90;;;;;;;15.78;100.00;100779.78;5096465;28;20040;-82
2022/09/14 09:42:07;;;;;;;13.90;1.70;;;;;;;15.84;100.00;100771.88;5096452;28;20435;-79
2022/09/14 09:45:05;;;;;;;4.60;1.48;;;;;;;15.96;100.00;100769.63;5096560;28;20028;-81
2022/09/14 09:47:37;;;;;;;5.68;1.70;;;;;;;16.11;100.00;100764.34;5096492;28;20435;-79
2022/09/14 09:50:17;;;;;;;5.50;1.20;;;;;;;16.21;100.00;100769.47;5078144;28;20040;-80
2022/09/14 09:53:01;;;;;;;6.63;1.90;;;;;;;16.35;100.00;100765.19;5096680;28;20456;-79
2022/09/14 09:55:37;;;;;;;5.55;1.42;;;;;;;16.44;100.00;100768.66;5078332;28;20376;-79
2022/09/14 09:58:28;;;;;;;5.30;1.20;;;;;;;16.46;99.97;100766.63;5078840;28;20544;-79
2022/09/14 10:00:59;;;;;;;6.50;1.48;;;;;;;16.47;98.32;100769.13;5096777;28;20032;-79
2022/09/14 10:03:32;;;;;;;;;;;;;;;16.55;99.84;100766.38;5096958;28;20028;-80
2022/09/14 10:06:04;;;;;;;4.07;1.20;;;;;;;16.62;98.51;100771.03;5095855;28;19923;-81
2022/09/14 10:08:33;;;;;;;3.80;1.45;;;;;;;16.66;98.98;100772.31;5094597;28;20032;-79
2022/09/14 10:11:02;;;;;;;5.82;1.50;;;;;;;16.67;97.89;100774.84;5095974;28;20024;-80
2022/09/14 10:13:33;;;;;;;3.25;1.25;;;;;;;16.71;97.01;100780.69;5096044;28;20036;-81
2022/09/14 10:16:16;;;;;;;4.22;1.20;;;;;;;16.83;98.01;100778.41;5077813;28;20357;-81
2022/09/14 10:18:47;;;;;;;5.95;1.40;;;;;;;16.95;97.55;100773.47;5096345;28;20379;-81
2022/09/14 10:21:15;;;;;;;4.90;1.67;;;;;;;17.06;98.94;100764.94;5078583;28;20055;-80
2022/09/14 10:23:42;;;;;;;6.32;1.40;;;;;;;17.18;97.03;100768.00;5077904;28;20032;-79
2022/09/14 10:26:13;;;;;;;4.05;1.05;;;;;;;17.22;93.10;100769.31;5096016;28;20142;-79
2022/09/14 10:28:44;;;;;;;5.05;1.20;;;;;;;17.32;92.53;100766.38;5095778;28;20040;-79
2022/09/14 10:31:18;;;;;;;4.50;1.50;;;;;;;17.40;96.57;100761.72;5094899;28;20078;-79
2022/09/14 10:33:45;;;;;;;6.07;1.70;;;;;;;17.42;93.39;100766.91;5095568;28;20131;-78
2022/09/14 10:36:23;;;;;;;6.88;1.58;;;;;;;17.37;91.73;100759.41;5095599;28;20070;-79
2022/09/14 10:38:57;;;;;;;5.10;1.20;;;;;;;17.40;94.51;100766.25;5095754;28;20032;-79
2022/09/14 10:41:45;;;;;;;10.27;1.63;;;;;;;17.43;95.21;100763.22;5095549;28;20468;-79
2022/09/14 10:44:42;;;;;;;2.75;1.20;;;;;;;17.47;93.63;100753.75;5096052;28;20032;-79
2022/09/14 10:47:41;;;;;;;5.50;1.40;;;;;;;17.67;94.90;100755.84;5095107;28;20086;-79
2022/09/14 10:50:44;;;;;;;5.93;1.20;;;;;;;18.19;88.16;100759.38;5094917;28;20107;-79
2022/09/14 10:53:17;;;;;;;5.00;1.50;;;;;;;18.98;87.51;100763.84;5095643;28;20028;-74
2022/09/14 10:55:55;;;;;;;4.25;1.23;;;;;;;19.69;84.97;100754.69;5095752;28;20028;-74
2022/09/14 10:59:14;;;;;;;5.95;1.58;;;;;;;20.35;76.43;100755.97;5095289;28;20024;-75
2022/09/14 11:02:02;;;;;;;6.25;1.40;;;;;;;20.77;73.13;100754.75;5061631;28;20044;-74
2022/09/14 11:05:01;;;;;;;6.55;1.40;;;;;;;20.83;69.76;100744.16;5094696;28;20032;-74
2022/09/14 11:07:36;;;;;;;8.15;1.30;;;;;;;20.54;71.17;100743.47;5095182;28;20032;-74
2022/09/14 11:10:18;;;;;;;5.05;1.48;;;;;;;20.57;71.09;100746.63;5076904;28;20364;-75
2022/09/14 11:13:09;;;;;;;7.05;1.50;;;;;;;20.33;71.37;100742.66;5094251;28;20031;-75
2022/09/14 11:15:46;;;;;;;7.18;1.30;;;;;;;19.95;70.00;100747.75;5094618;28;20036;-74
2022/09/14 11:18:31;;;;;;;5.10;1.13;;;;;;;19.74;71.40;100757.63;5094855;28;20472;-79
2022/09/14 11:21:07;;;;;;;5.97;1.50;;;;;;;19.71;74.90;100753.44;5094199;28;20032;-76
2022/09/14 11:23:36;;;;;;;6.78;1.20;;;;;;;19.85;72.40;100751.66;5094908;28;20070;-77
2022/09/14 11:26:09;;;;;;;8.95;1.80;;;;;;;20.07;73.21;100746.94;5094742;28;20035;-77
2022/09/14 11:28:41;;;;;;;5.55;1.50;;;;;;;20.46;70.04;100743.69;5095081;28;20077;-77
2022/09/14 11:31:14;;;;;;;4.78;1.50;;;;;;;20.53;72.21;100748.06;5094672;28;20035;-77
2022/09/14 11:33:54;;;;;;;4.75;1.55;;;;;;;20.91;66.96;100752.03;5094637;28;20035;-78
2022/09/14 11:36:23;;;;;;;5.78;1.30;;;;;;;21.33;63.10;100754.47;5094310;28;20016;-76
2022/09/14 11:38:55;;;;;;;4.30;1.17;;;;;;;21.14;63.77;100751.59;5094260;28;20456;-78
2022/09/14 11:41:36;;;;;;;5.45;1.60;;;;;;;21.74;62.50;100745.19;5094364;28;20032;-75